Time;durP1;ratioP1;P1;durP2;ratioP2;P2;SDS_P1;SDS_P2;PMS_P1;PMS_P2;Temp;Humidity;BMP_temperature;BMP_pressure;BME280_temperature;BME280_humidity;BME280_pressure;Samples;Min_cycle;Max_cycle;Signal;HPM_P1;HPM_P2
2022/03/29 00:00:00;;;;;;;0.00;0.00;;;13.20;50.00;;;;;;4134064;28;20046;-69
2022/03/29 00:02:22;;;;;;;0.00;0.00;;;13.10;50.20;;;;;;4133483;28;20463;-71
2022/03/29 00:04:46;;;;;;;0.00;0.00;;;13.10;50.30;;;;;;4133756;28;20038;-70
2022/03/29 00:07:10;;;;;;;0.00;0.00;;;12.90;50.50;;;;;;4146749;28;20052;-70
2022/03/29 00:09:42;;;;;;;0.00;0.00;;;12.80;50.90;;;;;;4133702;28;20395;-71
2022/03/29 00:12:11;;;;;;;0.00;0.00;;;12.60;51.50;;;;;;4117938;28;20061;-69
2022/03/29 00:14:34;;;;;;;0.00;0.00;;;12.50;51.50;;;;;;4146933;28;20143;-71
2022/03/29 00:16:57;;;;;;;0.00;0.00;;;12.60;51.20;;;;;;4133554;28;20057;-72
2022/03/29 00:19:20;;;;;;;0.00;0.00;;;12.70;50.60;;;;;;4120178;28;20061;-72
2022/03/29 00:21:42;;;;;;;0.00;0.00;;;12.70;50.20;;;;;;4133444;28;20062;-68
2022/03/29 00:24:09;;;;;;;0.00;0.00;;;12.70;50.30;;;;;;4132901;28;20104;-69
2022/03/29 00:26:34;;;;;;;0.00;0.00;;;12.80;50.60;;;;;;4118317;28;20066;-70
2022/03/29 00:29:04;;;;;;;0.00;0.00;;;12.80;50.60;;;;;;4118345;28;20051;-70
2022/03/29 00:31:34;;;;;;;0.00;0.00;;;12.80;50.70;;;;;;4118128;28;20133;-71
2022/03/29 00:34:04;;;;;;;0.00;0.00;;;12.90;50.70;;;;;;4133592;28;20389;-70
2022/03/29 00:36:33;;;;;;;0.00;0.00;;;12.90;50.20;;;;;;4103799;28;20078;-72
2022/03/29 00:39:00;;;;;;;0.00;0.00;;;12.80;49.90;;;;;;4117993;28;20062;-73
2022/03/29 00:41:26;;;;;;;0.00;0.00;;;12.80;49.90;;;;;;4118157;28;20058;-69
2022/03/29 00:43:51;;;;;;;0.00;0.00;;;12.90;49.60;;;;;;4103831;28;20137;-71
2022/03/29 00:46:16;;;;;;;0.00;0.00;;;12.80;49.80;;;;;;4116767;28;20089;-73
2022/03/29 00:48:39;;;;;;;0.00;0.00;;;12.80;49.90;;;;;;4116905;28;20142;-73
2022/03/29 00:51:06;;;;;;;0.00;0.00;;;12.80;49.50;;;;;;4130119;28;20053;-71
2022/03/29 00:53:30;;;;;;;0.00;0.00;;;12.60;49.30;;;;;;4118079;28;20369;-71
2022/03/29 00:55:59;;;;;;;0.00;0.00;;;12.60;49.10;;;;;;4117023;28;20082;-69
2022/03/29 00:58:25;;;;;;;0.00;0.00;;;12.60;49.20;;;;;;4129588;28;20046;-72
2022/03/29 01:00:58;;;;;;;0.00;0.00;;;12.70;49.00;;;;;;4117836;28;20062;-71
2022/03/29 01:03:26;;;;;;;0.00;0.00;;;12.60;48.90;;;;;;4117195;28;20043;-68
2022/03/29 01:06:11;;;;;;;0.00;0.00;;;12.70;48.90;;;;;;4117393;28;20121;-72
2022/03/29 01:08:45;;;;;;;0.00;0.00;;;12.60;49.00;;;;;;4116849;28;20102;-72
2022/03/29 01:11:16;;;;;;;0.00;0.00;;;12.60;49.10;;;;;;4116963;28;20043;-71
2022/03/29 01:13:45;;;;;;;0.00;0.00;;;12.60;49.30;;;;;;4116684;28;20059;-71
2022/03/29 01:19:19;;;;;;;0.00;0.00;;;12.60;50.00;;;;;;4133839;28;20050;-70
2022/03/29 01:22:11;;;;;;;0.00;0.00;;;12.70;50.20;;;;;;4133201;28;20061;-68
2022/03/29 01:24:38;;;;;;;0.00;0.00;;;12.70;49.60;;;;;;4118987;28;20406;-69
2022/03/29 01:27:02;;;;;;;0.00;0.00;;;12.70;50.10;;;;;;4133150;28;20054;-69
2022/03/29 01:29:24;;;;;;;0.00;0.00;;;12.60;50.30;;;;;;4132903;28;20422;-70
2022/03/29 01:31:49;;;;;;;0.00;0.00;;;12.60;50.20;;;;;;4119129;28;20057;-71
2022/03/29 01:34:12;;;;;;;0.00;0.00;;;12.60;50.20;;;;;;4132361;28;20043;-71
2022/03/29 01:36:36;;;;;;;0.00;0.00;;;12.70;50.30;;;;;;4132741;28;20058;-70
2022/03/29 01:38:59;;;;;;;0.00;0.00;;;12.70;50.10;;;;;;4132296;28;20106;-73
2022/03/29 01:41:23;;;;;;;0.00;0.00;;;12.60;49.70;;;;;;4132688;28;20054;-71
2022/03/29 01:43:45;;;;;;;0.00;0.00;;;12.60;49.50;;;;;;4119246;28;20085;-71
2022/03/29 01:46:12;;;;;;;0.00;0.00;;;12.60;49.60;;;;;;4118728;28;20058;-67
2022/03/29 01:48:39;;;;;;;0.00;0.00;;;12.60;49.40;;;;;;4132609;28;20046;-70
2022/03/29 01:51:01;;;;;;;0.00;0.00;;;12.60;49.40;;;;;;4132577;28;20460;-70
2022/03/29 01:53:28;;;;;;;0.00;0.00;;;12.40;49.70;;;;;;4132382;28;20153;-69
2022/03/29 01:56:00;;;;;;;0.00;0.00;;;12.50;50.10;;;;;;4132102;28;20054;-69
2022/03/29 01:58:31;;;;;;;0.00;0.00;;;12.40;50.20;;;;;;4118705;28;20042;-70
2022/03/29 02:00:53;;;;;;;0.00;0.00;;;12.40;50.00;;;;;;4132180;28;20047;-70
2022/03/29 02:03:24;;;;;;;0.00;0.00;;;12.40;50.00;;;;;;4132075;28;20043;-70
2022/03/29 02:05:49;;;;;;;0.00;0.00;;;12.40;50.00;;;;;;4118791;28;20101;-70
2022/03/29 02:08:13;;;;;;;0.00;0.00;;;12.40;50.20;;;;;;4118764;28;20058;-71
2022/03/29 02:10:35;;;;;;;0.00;0.00;;;12.40;50.30;;;;;;4131865;28;20144;-69
2022/03/29 02:13:03;;;;;;;0.00;0.00;;;12.30;50.60;;;;;;4118635;28;20389;-71
2022/03/29 02:15:25;;;;;;;0.00;0.00;;;12.20;50.60;;;;;;4131471;28;20104;-70
2022/03/29 02:17:53;;;;;;;0.00;0.00;;;12.20;50.80;;;;;;4118844;28;20052;-71
2022/03/29 02:20:15;;;;;;;0.00;0.00;;;12.30;50.90;;;;;;4117861;28;20105;-69
2022/03/29 02:22:37;;;;;;;0.00;0.00;;;12.20;51.00;;;;;;4105162;28;20039;-69
2022/03/29 02:24:59;;;;;;;0.00;0.00;;;12.20;51.40;;;;;;4131771;28;20052;-69
2022/03/29 02:27:27;;;;;;;0.00;0.00;;;12.10;51.60;;;;;;4118388;28;20043;-72
2022/03/29 02:29:49;;;;;;;0.00;0.00;;;12.10;52.00;;;;;;4131864;28;20089;-72
2022/03/29 02:32:18;;;;;;;0.00;0.00;;;12.10;52.50;;;;;;4131363;28;20046;-72
2022/03/29 02:34:45;;;;;;;0.00;0.00;;;12.10;53.20;;;;;;4118591;28;20043;-73
2022/03/29 02:37:11;;;;;;;0.00;0.00;;;12.10;53.70;;;;;;4115085;28;20117;-69
2022/03/29 02:39:36;;;;;;;0.00;0.00;;;12.10;54.10;;;;;;4115572;28;20114;-71
2022/03/29 02:41:58;;;;;;;0.00;0.00;;;12.10;54.60;;;;;;4115622;28;20038;-73
2022/03/29 02:44:20;;;;;;;0.00;0.00;;;12.10;54.60;;;;;;4102217;28;20473;-71
2022/03/29 02:46:44;;;;;;;0.00;0.00;;;12.10;54.70;;;;;;4102745;28;20066;-72
2022/03/29 02:49:09;;;;;;;0.00;0.00;;;12.10;54.80;;;;;;4102181;28;20057;-72
2022/03/29 02:51:31;;;;;;;0.00;0.00;;;12.10;54.90;;;;;;4115510;28;20046;-71
2022/03/29 02:53:55;;;;;;;0.00;0.00;;;12.10;54.80;;;;;;4102215;28;20047;-70
2022/03/29 02:56:17;;;;;;;0.00;0.00;;;12.10;54.90;;;;;;4114716;28;20122;-70
2022/03/29 02:58:44;;;;;;;0.00;0.00;;;12.00;54.90;;;;;;4115443;28;20465;-69
2022/03/29 03:01:08;;;;;;;0.00;0.00;;;11.90;54.90;;;;;;4115465;28;20078;-69
2022/03/29 03:03:31;;;;;;;0.00;0.00;;;11.90;55.20;;;;;;4102098;28;20078;-69
2022/03/29 03:06:01;;;;;;;0.00;0.00;;;11.90;55.40;;;;;;4088784;28;20055;-70
2022/03/29 03:08:25;;;;;;;0.00;0.00;;;11.90;55.70;;;;;;4101316;28;20398;-70
2022/03/29 03:10:47;;;;;;;0.00;0.00;;;11.80;56.70;;;;;;4102165;28;20046;-71
2022/03/29 03:13:11;;;;;;;0.00;0.00;;;11.80;56.50;;;;;;4115144;28;20055;-72
2022/03/29 03:15:38;;;;;;;0.00;0.00;;;11.80;56.70;;;;;;4101996;28;20410;-69
2022/03/29 03:18:01;;;;;;;0.00;0.00;;;11.70;57.20;;;;;;4101642;28;20043;-71
2022/03/29 03:20:24;;;;;;;0.00;0.00;;;11.80;57.50;;;;;;4101524;28;20138;-72
2022/03/29 03:22:46;;;;;;;0.00;0.00;;;11.70;57.90;;;;;;4102101;28;20031;-70
2022/03/29 03:25:09;;;;;;;0.00;0.00;;;11.80;58.30;;;;;;4115934;28;20536;-72
2022/03/29 03:27:31;;;;;;;0.00;0.00;;;11.80;58.60;;;;;;4118583;28;20051;-68
2022/03/29 03:29:56;;;;;;;0.00;0.00;;;11.80;58.70;;;;;;4118360;28;20051;-71
2022/03/29 03:32:18;;;;;;;0.00;0.00;;;11.80;58.80;;;;;;4118004;28;20043;-69
2022/03/29 03:34:43;;;;;;;0.00;0.00;;;11.80;58.80;;;;;;4118226;28;20122;-74
2022/03/29 03:37:08;;;;;;;0.00;0.00;;;11.80;58.90;;;;;;4105205;28;20446;-70
2022/03/29 03:39:32;;;;;;;0.00;0.00;;;11.80;59.10;;;;;;4118358;28;20050;-71
2022/03/29 03:41:54;;;;;;;0.00;0.00;;;11.80;59.10;;;;;;4118267;28;20054;-69
2022/03/29 03:44:16;;;;;;;0.00;0.00;;;11.80;59.00;;;;;;4117644;28;20485;-72
2022/03/29 03:46:38;;;;;;;0.00;0.00;;;11.80;59.00;;;;;;4091797;28;20055;-71
2022/03/29 03:49:02;;;;;;;0.00;0.00;;;11.70;58.90;;;;;;4105061;28;20558;-70
2022/03/29 03:51:24;;;;;;;0.00;0.00;;;11.70;58.70;;;;;;4104781;28;20071;-70
2022/03/29 03:53:50;;;;;;;0.00;0.00;;;11.70;57.90;;;;;;4104667;28;20177;-72
2022/03/29 03:56:17;;;;;;;0.00;0.00;;;11.60;57.20;;;;;;4131495;28;20054;-73
2022/03/29 03:58:42;;;;;;;0.00;0.00;;;11.60;56.70;;;;;;4105455;28;20073;-67
2022/03/29 04:01:04;;;;;;;0.00;0.00;;;11.60;56.20;;;;;;4118388;28;20069;-69
2022/03/29 04:03:28;;;;;;;0.00;0.00;;;11.60;55.70;;;;;;4105195;28;20058;-72
2022/03/29 04:05:52;;;;;;;0.00;0.00;;;11.50;55.10;;;;;;4105115;28;20615;-73
2022/03/29 04:08:21;;;;;;;0.00;0.00;;;11.50;54.80;;;;;;4131471;28;20046;-70
2022/03/29 04:10:43;;;;;;;0.00;0.00;;;11.50;54.90;;;;;;4104806;28;20054;-70
2022/03/29 04:13:05;;;;;;;0.00;0.00;;;11.40;55.10;;;;;;4091559;28;20518;-71
2022/03/29 04:15:29;;;;;;;0.00;0.00;;;11.40;55.10;;;;;;4091380;28;20474;-72
2022/03/29 04:17:54;;;;;;;0.00;0.00;;;11.40;55.00;;;;;;4118052;28;20058;-68
2022/03/29 04:20:16;;;;;;;0.00;0.00;;;11.40;54.90;;;;;;4103986;28;20151;-71
2022/03/29 04:22:38;;;;;;;0.00;0.00;;;11.50;54.80;;;;;;4091166;28;20099;-69
2022/03/29 04:25:00;;;;;;;0.00;0.00;;;11.50;54.40;;;;;;4118123;28;20441;-67
2022/03/29 04:27:24;;;;;;;0.00;0.00;;;11.40;54.30;;;;;;4104542;28;20087;-72
2022/03/29 04:29:46;;;;;;;0.00;0.00;;;11.50;54.00;;;;;;4104929;28;20101;-69
2022/03/29 04:32:11;;;;;;;0.00;0.00;;;11.50;53.80;;;;;;4117588;28;20046;-70
2022/03/29 04:34:37;;;;;;;0.00;0.00;;;11.40;53.60;;;;;;4117793;28;20058;-69
2022/03/29 04:37:02;;;;;;;0.00;0.00;;;11.40;53.10;;;;;;4103763;28;20806;-71
2022/03/29 04:39:25;;;;;;;0.00;0.00;;;11.40;53.10;;;;;;4104249;28;20117;-72
2022/03/29 04:41:47;;;;;;;0.00;0.00;;;11.40;52.60;;;;;;4091093;28;20050;-70
2022/03/29 04:44:32;;;;;;;0.00;0.00;;;11.30;52.80;;;;;;4117110;28;20137;-68
2022/03/29 04:46:54;;;;;;;0.00;0.00;;;11.10;52.60;;;;;;4117679;28;20433;-70
2022/03/29 04:49:18;;;;;;;0.00;0.00;;;11.10;52.60;;;;;;4104564;28;20500;-70
2022/03/29 04:51:40;;;;;;;0.00;0.00;;;11.00;52.60;;;;;;4104379;28;20062;-69
2022/03/29 04:54:05;;;;;;;0.00;0.00;;;11.00;52.70;;;;;;4117169;28;20109;-66
2022/03/29 04:56:27;;;;;;;0.00;0.00;;;10.90;52.40;;;;;;4090788;28;20039;-69
2022/03/29 04:58:49;;;;;;;0.00;0.00;;;10.90;52.70;;;;;;4104267;28;20042;-69
2022/03/29 05:01:16;;;;;;;0.00;0.00;;;11.00;52.80;;;;;;4117558;28;20047;-72
2022/03/29 05:03:40;;;;;;;0.00;0.00;;;10.90;52.40;;;;;;4117503;28;20057;-72
2022/03/29 05:06:04;;;;;;;0.00;0.00;;;10.80;52.70;;;;;;4117322;28;20101;-73
2022/03/29 05:08:27;;;;;;;0.00;0.00;;;10.90;52.70;;;;;;4133020;28;20377;-71
2022/03/29 05:10:51;;;;;;;0.00;0.00;;;11.00;52.50;;;;;;4133738;28;20065;-70
2022/03/29 05:13:17;;;;;;;0.00;0.00;;;11.10;52.40;;;;;;4133303;28;20050;-71
2022/03/29 05:15:39;;;;;;;0.00;0.00;;;11.00;52.60;;;;;;4133238;28;20046;-72
2022/03/29 05:18:01;;;;;;;0.00;0.00;;;10.90;52.80;;;;;;4133441;28;20068;-71
2022/03/29 05:20:24;;;;;;;0.00;0.00;;;10.90;52.90;;;;;;4106273;28;20097;-70
2022/03/29 05:22:48;;;;;;;0.00;0.00;;;10.90;53.00;;;;;;4119915;28;20039;-70
2022/03/29 05:25:17;;;;;;;0.00;0.00;;;10.70;53.40;;;;;;4119799;28;20135;-72
2022/03/29 05:27:42;;;;;;;0.00;0.00;;;10.60;53.90;;;;;;4133276;28;20065;-71
2022/03/29 05:30:11;;;;;;;0.00;0.00;;;10.50;54.40;;;;;;4116778;28;20050;-75
2022/03/29 05:32:36;;;;;;;0.00;0.00;;;10.50;54.60;;;;;;4132906;28;20104;-74
2022/03/29 05:35:00;;;;;;;0.00;0.00;;;10.60;54.60;;;;;;4119395;28;20049;-71
2022/03/29 05:37:25;;;;;;;0.00;0.00;;;10.70;54.50;;;;;;4106593;28;20042;-72
2022/03/29 05:39:47;;;;;;;0.00;0.00;;;10.80;54.40;;;;;;4132942;28;20042;-68
2022/03/29 05:42:11;;;;;;;0.00;0.00;;;10.90;54.30;;;;;;4132441;28;20062;-68
2022/03/29 05:44:33;;;;;;;0.00;0.00;;;10.80;54.50;;;;;;4119846;28;20122;-69
2022/03/29 05:49:42;;;;;;;0.00;0.00;;;10.80;54.90;;;;;;4145314;28;20180;-72
2022/03/29 05:52:04;;;;;;;0.00;0.00;;;10.80;54.80;;;;;;4148790;28;20074;-70
2022/03/29 05:54:30;;;;;;;0.00;0.00;;;10.90;54.60;;;;;;4135149;28;20046;-67
2022/03/29 05:56:53;;;;;;;0.00;0.00;;;11.00;54.30;;;;;;4148867;28;20383;-67
2022/03/29 05:59:15;;;;;;;0.00;0.00;;;11.20;53.80;;;;;;4149268;28;20041;-69
2022/03/29 06:01:40;;;;;;;0.00;0.00;;;11.30;53.40;;;;;;4149224;28;20108;-65
2022/03/29 06:04:06;;;;;;;0.00;0.00;;;11.30;53.20;;;;;;4135759;28;20452;-66
2022/03/29 06:06:29;;;;;;;0.00;0.00;;;11.40;52.90;;;;;;4148365;28;20419;-66
2022/03/29 06:08:53;;;;;;;0.00;0.00;;;11.40;53.00;;;;;;4135232;28;20042;-67
2022/03/29 06:11:18;;;;;;;0.00;0.00;;;11.40;53.40;;;;;;4148731;28;20767;-66
2022/03/29 06:13:40;;;;;;;0.00;0.00;;;11.40;53.90;;;;;;4135156;28;20042;-66
2022/03/29 06:16:07;;;;;;;0.00;0.00;;;11.40;54.20;;;;;;4148720;28;20041;-67
2022/03/29 06:18:30;;;;;;;0.00;0.00;;;11.40;54.40;;;;;;4145797;28;20057;-67
2022/03/29 06:20:56;;;;;;;0.00;0.00;;;11.20;54.70;;;;;;4139101;28;20425;-67
2022/03/29 06:23:21;;;;;;;0.00;0.00;;;11.20;54.70;;;;;;4135132;28;20481;-66
2022/03/29 06:25:48;;;;;;;0.00;0.00;;;11.30;54.40;;;;;;4147488;28;20073;-66
2022/03/29 06:28:14;;;;;;;0.00;0.00;;;11.40;53.70;;;;;;4139574;28;20046;-65
2022/03/29 06:30:36;;;;;;;0.00;0.00;;;11.40;53.20;;;;;;4134340;28;20052;-67
2022/03/29 06:33:02;;;;;;;0.00;0.00;;;11.30;52.90;;;;;;4147950;28;20465;-66
2022/03/29 06:35:26;;;;;;;0.00;0.00;;;11.30;52.60;;;;;;4134669;28;20056;-67
2022/03/29 06:37:55;;;;;;;0.00;0.00;;;11.20;52.10;;;;;;4134654;28;20050;-68
2022/03/29 06:40:21;;;;;;;0.00;0.00;;;11.30;51.80;;;;;;4147919;28;20042;-68
2022/03/29 06:42:43;;;;;;;0.00;0.00;;;11.30;51.80;;;;;;4105770;28;20454;-65
2022/03/29 06:45:08;;;;;;;0.00;0.00;;;11.30;51.80;;;;;;4131987;28;20358;-67
2022/03/29 06:47:30;;;;;;;0.00;0.00;;;11.40;51.70;;;;;;4118379;28;20525;-68
2022/03/29 06:49:59;;;;;;;0.00;0.00;;;11.50;51.70;;;;;;4131960;28;20034;-68
2022/03/29 06:52:26;;;;;;;0.00;0.00;;;11.40;51.90;;;;;;4131795;28;20114;-69
2022/03/29 06:54:50;;;;;;;0.00;0.00;;;11.50;52.10;;;;;;4131991;28;20042;-67
2022/03/29 06:57:14;;;;;;;0.00;0.00;;;11.70;52.30;;;;;;4118374;28;20054;-66
2022/03/29 06:59:39;;;;;;;0.00;0.00;;;11.80;52.40;;;;;;4131383;28;20050;-65
2022/03/29 07:02:11;;;;;;;0.00;0.00;;;11.80;53.00;;;;;;4132567;28;20137;-66
2022/03/29 07:04:34;;;;;;;0.00;0.00;;;11.70;53.50;;;;;;4116127;28;20077;-66
2022/03/29 07:06:56;;;;;;;0.00;0.00;;;11.70;54.00;;;;;;4122714;28;20057;-66
2022/03/29 07:12:12;;;;;;;0.00;0.00;;;11.90;54.10;;;;;;4132954;28;20077;-66
2022/03/29 07:14:36;;;;;;;0.00;0.00;;;12.00;53.90;;;;;;4118524;28;20129;-67
2022/03/29 07:16:59;;;;;;;0.00;0.00;;;12.10;53.60;;;;;;4122783;28;20056;-66
2022/03/29 07:19:23;;;;;;;0.00;0.00;;;12.20;52.80;;;;;;4142114;28;20037;-66
2022/03/29 07:21:46;;;;;;;0.00;0.00;;;12.30;52.30;;;;;;4134288;28;20112;-67
2022/03/29 07:24:10;;;;;;;0.00;0.00;;;12.20;51.60;;;;;;4120469;28;20453;-66
2022/03/29 07:26:34;;;;;;;0.00;0.00;;;12.20;51.50;;;;;;4147780;28;20044;-67
2022/03/29 07:28:56;;;;;;;0.00;0.00;;;12.40;51.60;;;;;;4121001;28;20445;-67
2022/03/29 07:31:27;;;;;;;0.00;0.00;;;12.50;51.60;;;;;;4120728;28;20474;-66
2022/03/29 07:33:52;;;;;;;0.00;0.00;;;12.60;51.10;;;;;;4129464;28;20412;-67
2022/03/29 07:36:17;;;;;;;0.00;0.00;;;12.60;51.10;;;;;;4103216;28;20110;-65
2022/03/29 07:38:41;;;;;;;0.00;0.00;;;12.80;51.10;;;;;;4131606;28;20058;-69
2022/03/29 07:41:03;;;;;;;0.00;0.00;;;13.00;51.00;;;;;;4131546;28;20046;-67
2022/03/29 07:43:25;;;;;;;0.00;0.00;;;13.20;50.40;;;;;;4131396;28;20263;-68
2022/03/29 07:45:47;;;;;;;0.00;0.00;;;13.30;50.30;;;;;;4131207;28;20050;-68
2022/03/29 07:48:12;;;;;;;0.00;0.00;;;13.40;49.70;;;;;;4131025;28;20115;-66
2022/03/29 07:50:54;;;;;;;0.00;0.00;;;13.40;49.60;;;;;;4131377;28;20105;-67
2022/03/29 07:53:16;;;;;;;0.00;0.00;;;13.50;50.40;;;;;;4131106;28;20054;-66
2022/03/29 07:55:40;;;;;;;0.00;0.00;;;13.50;51.30;;;;;;4131259;28;20090;-70
2022/03/29 07:58:12;;;;;;;0.00;0.00;;;13.50;51.70;;;;;;4117429;28;20055;-68
2022/03/29 08:00:37;;;;;;;0.00;0.00;;;13.50;52.70;;;;;;4117866;28;20086;-69
2022/03/29 08:03:11;;;;;;;0.00;0.00;;;13.60;53.10;;;;;;4118006;28;20077;-69
2022/03/29 08:05:37;;;;;;;0.00;0.00;;;13.60;53.30;;;;;;4131370;28;20050;-68
2022/03/29 08:08:00;;;;;;;0.00;0.00;;;13.60;53.40;;;;;;4117785;28;20046;-69
2022/03/29 08:10:25;;;;;;;0.00;0.00;;;13.60;53.40;;;;;;4090326;28;20047;-69
2022/03/29 08:12:47;;;;;;;0.00;0.00;;;13.60;53.40;;;;;;4120809;28;20528;-66
2022/03/29 08:15:13;;;;;;;0.00;0.00;;;13.60;53.10;;;;;;4147752;28;20042;-69
2022/03/29 08:17:38;;;;;;;0.00;0.00;;;13.70;53.00;;;;;;4133923;28;20082;-66
2022/03/29 08:20:01;;;;;;;0.00;0.00;;;13.80;52.70;;;;;;4134028;28;20042;-66
2022/03/29 08:22:23;;;;;;;0.00;0.00;;;14.10;52.50;;;;;;4133602;28;20054;-65
2022/03/29 08:24:47;;;;;;;0.00;0.00;;;14.20;52.60;;;;;;4120372;28;20057;-67
2022/03/29 08:27:12;;;;;;;0.00;0.00;;;14.30;52.60;;;;;;4134177;28;20430;-66
2022/03/29 08:29:37;;;;;;;0.00;0.00;;;14.30;52.50;;;;;;4134048;28;20461;-68
2022/03/29 08:31:59;;;;;;;0.00;0.00;;;14.30;52.00;;;;;;4120323;28;20453;-68
2022/03/29 08:34:26;;;;;;;0.00;0.00;;;14.20;52.00;;;;;;4133357;28;20062;-67
2022/03/29 08:36:52;;;;;;;0.00;0.00;;;14.20;51.80;;;;;;4120311;28;20042;-67
2022/03/29 08:39:16;;;;;;;0.00;0.00;;;14.10;52.70;;;;;;4133616;28;20353;-68
2022/03/29 08:42:00;;;;;;;0.00;0.00;;;14.00;52.90;;;;;;4121028;28;20050;-66
2022/03/29 08:44:26;;;;;;;0.00;0.00;;;14.20;53.10;;;;;;4133271;28;20369;-67
2022/03/29 08:46:49;;;;;;;0.00;0.00;;;14.30;52.70;;;;;;4133805;28;20046;-67
2022/03/29 08:49:12;;;;;;;0.00;0.00;;;14.50;52.10;;;;;;4133765;28;20117;-67
2022/03/29 08:51:39;;;;;;;0.00;0.00;;;14.60;51.10;;;;;;4120232;28;20452;-67
2022/03/29 08:54:02;;;;;;;0.00;0.00;;;14.80;50.30;;;;;;4133642;28;20051;-66
2022/03/29 08:56:27;;;;;;;0.00;0.00;;;15.00;49.60;;;;;;4132890;28;20112;-68
2022/03/29 08:58:53;;;;;;;0.00;0.00;;;15.10;49.40;;;;;;4133467;28;20412;-66
2022/03/29 09:01:19;;;;;;;0.00;0.00;;;15.20;49.10;;;;;;4119861;28;20112;-67
2022/03/29 09:03:44;;;;;;;0.00;0.00;;;15.40;48.80;;;;;;4133409;28;20104;-67
2022/03/29 09:06:10;;;;;;;0.00;0.00;;;15.40;48.00;;;;;;4103695;28;20379;-67
2022/03/29 09:08:47;;;;;;;0.00;0.00;;;15.50;47.30;;;;;;4147090;28;20127;-68
2022/03/29 09:11:09;;;;;;;0.00;0.00;;;15.60;46.70;;;;;;4133668;28;20050;-65
2022/03/29 09:13:31;;;;;;;0.00;0.00;;;15.70;46.60;;;;;;4133575;28;20085;-66
2022/03/29 09:15:58;;;;;;;0.00;0.00;;;15.80;45.60;;;;;;4119724;28;20446;-67
2022/03/29 09:18:25;;;;;;;0.00;0.00;;;15.90;45.30;;;;;;4119285;28;20042;-68
2022/03/29 09:21:12;;;;;;;0.00;0.00;;;16.20;45.60;;;;;;4125092;28;20408;-67
2022/03/29 09:23:37;;;;;;;0.00;0.00;;;16.40;47.70;;;;;;4148754;28;20083;-67
2022/03/29 09:26:01;;;;;;;0.00;0.00;;;16.20;47.10;;;;;;4149189;28;20046;-67
2022/03/29 09:28:23;;;;;;;0.00;0.00;;;16.00;47.60;;;;;;4148954;28;20049;-68
2022/03/29 09:30:53;;;;;;;0.00;0.00;;;16.10;46.20;;;;;;4149275;28;20124;-67
2022/03/29 09:33:17;;;;;;;0.00;0.00;;;16.00;44.90;;;;;;4135978;28;20489;-67
2022/03/29 09:36:07;;;;;;;0.00;0.00;;;16.00;44.60;;;;;;4149076;28;20046;-66
2022/03/29 09:38:37;;;;;;;0.00;0.00;;;16.00;44.30;;;;;;4148724;28;20045;-67
2022/03/29 09:41:08;;;;;;;0.00;0.00;;;15.90;44.40;;;;;;4149088;28;20054;-66
2022/03/29 09:44:21;;;;;;;0.00;0.00;;;16.00;44.10;;;;;;4132754;28;20160;-67
2022/03/29 09:47:01;;;;;;;0.00;0.00;;;16.00;43.40;;;;;;4132865;28;20038;-67
2022/03/29 09:49:27;;;;;;;0.00;0.00;;;15.90;43.90;;;;;;4149272;28;20046;-68
2022/03/29 09:52:10;;;;;;;0.00;0.00;;;15.90;43.60;;;;;;4148859;28;20049;-68
2022/03/29 09:54:32;;;;;;;0.00;0.00;;;16.10;43.20;;;;;;4148372;28;20129;-66
2022/03/29 09:56:57;;;;;;;0.00;0.00;;;16.20;43.10;;;;;;4148432;28;20052;-68
2022/03/29 09:59:22;;;;;;;0.00;0.00;;;16.30;42.90;;;;;;4132444;28;20045;-65
2022/03/29 10:01:54;;;;;;;0.00;0.00;;;16.50;43.30;;;;;;4132490;28;20137;-67
2022/03/29 10:04:21;;;;;;;0.00;0.00;;;16.70;43.00;;;;;;4148307;28;20124;-66
2022/03/29 10:06:48;;;;;;;0.00;0.00;;;16.90;42.70;;;;;;4148674;28;20085;-67
2022/03/29 10:09:27;;;;;;;0.00;0.00;;;16.80;42.00;;;;;;4148495;28;20049;-66
2022/03/29 10:11:50;;;;;;;0.00;0.00;;;16.50;42.10;;;;;;4135080;28;20046;-65
2022/03/29 10:14:21;;;;;;;0.00;0.00;;;16.20;42.10;;;;;;4135161;28;20516;-65
2022/03/29 10:16:49;;;;;;;0.00;0.00;;;16.10;42.70;;;;;;4134686;28;20039;-66
2022/03/29 10:19:11;;;;;;;0.00;0.00;;;16.00;43.10;;;;;;4148450;28;20124;-66
2022/03/29 10:21:37;;;;;;;0.00;0.00;;;16.20;44.00;;;;;;4148221;28;20057;-69
2022/03/29 10:24:00;;;;;;;0.00;0.00;;;16.50;44.40;;;;;;4134866;28;20050;-67
2022/03/29 10:26:25;;;;;;;0.00;0.00;;;16.90;43.70;;;;;;4134355;28;20104;-67
2022/03/29 10:28:48;;;;;;;0.00;0.00;;;17.10;43.10;;;;;;4148247;28;20041;-67
2022/03/29 10:31:27;;;;;;;0.00;0.00;;;17.30;43.20;;;;;;4148325;28;20042;-65
2022/03/29 10:34:12;;;;;;;0.00;0.00;;;17.60;42.60;;;;;;4121010;28;20057;-66
2022/03/29 10:36:54;;;;;;;0.00;0.00;;;17.60;43.40;;;;;;4147704;28;20041;-66
2022/03/29 10:39:21;;;;;;;0.00;0.00;;;17.60;43.70;;;;;;4147992;28;20054;-67
2022/03/29 10:41:43;;;;;;;0.00;0.00;;;17.80;43.40;;;;;;4134872;28;20069;-66
2022/03/29 10:44:08;;;;;;;0.00;0.00;;;17.90;42.30;;;;;;4134129;28;20108;-68
2022/03/29 10:46:45;;;;;;;0.00;0.00;;;17.70;41.50;;;;;;4148029;28;20125;-66
2022/03/29 10:49:17;;;;;;;0.00;0.00;;;17.90;42.00;;;;;;4148227;28;20050;-67
2022/03/29 10:51:44;;;;;;;0.00;0.00;;;18.10;41.00;;;;;;4134335;28;20046;-70
2022/03/29 10:54:31;;;;;;;0.00;0.00;;;18.10;39.90;;;;;;4147751;28;20053;-67
2022/03/29 10:57:06;;;;;;;0.00;0.00;;;17.90;37.90;;;;;;4133992;28;20041;-67
2022/03/29 10:59:30;;;;;;;0.00;0.00;;;17.80;38.70;;;;;;4148131;28;20052;-69
2022/03/29 11:02:06;;;;;;;0.00;0.00;;;17.90;38.10;;;;;;4147908;28;20579;-69
2022/03/29 11:04:33;;;;;;;0.00;0.00;;;17.90;38.10;;;;;;4144702;28;20052;-68
2022/03/29 11:07:11;;;;;;;0.00;0.00;;;17.90;38.20;;;;;;4132100;28;20054;-67
2022/03/29 11:09:35;;;;;;;0.00;0.00;;;18.10;38.20;;;;;;4132074;28;20042;-67
2022/03/29 11:12:00;;;;;;;0.00;0.00;;;18.10;37.60;;;;;;4118312;28;20043;-67
2022/03/29 11:14:35;;;;;;;0.00;0.00;;;18.10;37.80;;;;;;4131688;28;20125;-68
2022/03/29 11:17:09;;;;;;;0.00;0.00;;;18.10;37.80;;;;;;4118547;28;20394;-68
2022/03/29 11:19:48;;;;;;;0.00;0.00;;;18.20;37.10;;;;;;4105211;28;20051;-69
2022/03/29 11:22:21;;;;;;;;;;;18.30;37.40;;;;;;4131773;28;20065;-67
2022/03/29 11:24:54;;;;;;;0.00;0.00;;;18.60;36.90;;;;;;4145397;28;20312;-69
2022/03/29 11:27:31;;;;;;;0.00;0.00;;;18.80;36.40;;;;;;4118377;28;20051;-68
2022/03/29 11:29:55;;;;;;;0.00;0.00;;;19.20;36.50;;;;;;4131845;28;20054;-66
2022/03/29 11:32:22;;;;;;;0.00;0.00;;;19.50;36.20;;;;;;4118058;28;20052;-69
2022/03/29 11:34:45;;;;;;;0.00;0.00;;;19.60;35.60;;;;;;4131263;28;20100;-68
2022/03/29 11:37:07;;;;;;;0.00;0.00;;;19.60;35.90;;;;;;4118003;28;20046;-68
2022/03/29 11:39:30;;;;;;;0.00;0.00;;;19.70;35.80;;;;;;4131571;28;20096;-69
2022/03/29 11:41:53;;;;;;;0.00;0.00;;;19.70;35.70;;;;;;4117799;28;20051;-68
2022/03/29 11:44:16;;;;;;;0.00;0.00;;;19.80;35.10;;;;;;4117708;28;20744;-70
2022/03/29 11:46:57;;;;;;;0.00;0.00;;;20.10;34.50;;;;;;4133028;28;20481;-68
2022/03/29 11:49:21;;;;;;;0.00;0.00;;;20.20;34.40;;;;;;4134902;28;20054;-71
2022/03/29 11:51:58;;;;;;;0.00;0.00;;;20.10;35.40;;;;;;4134525;28;20105;-67
2022/03/29 11:54:23;;;;;;;0.00;0.00;;;19.70;35.90;;;;;;4134253;28;20046;-66
2022/03/29 11:56:45;;;;;;;0.00;0.00;;;19.30;35.80;;;;;;4134359;28;20039;-67
2022/03/29 11:59:16;;;;;;;0.00;0.00;;;19.30;37.20;;;;;;4134291;28;20046;-69
2022/03/29 12:01:38;;;;;;;0.00;0.00;;;19.80;38.10;;;;;;4134480;28;20054;-68
2022/03/29 12:04:04;;;;;;;0.00;0.00;;;19.60;38.50;;;;;;4107660;28;20394;-69
2022/03/29 12:06:30;;;;;;;0.00;0.00;;;19.70;38.50;;;;;;4147616;28;20049;-69
2022/03/29 12:09:03;;;;;;;0.00;0.00;;;19.50;37.80;;;;;;4121014;28;20088;-67
2022/03/29 12:11:37;;;;;;;0.00;0.00;;;19.60;37.90;;;;;;4134220;28;20050;-66
2022/03/29 12:14:06;;;;;;;0.00;0.00;;;19.70;36.40;;;;;;4120710;28;20042;-69
2022/03/29 12:16:32;;;;;;;0.00;0.00;;;19.80;36.50;;;;;;4147492;28;20053;-67
2022/03/29 12:18:59;;;;;;;0.00;0.00;;;19.70;37.20;;;;;;4120948;28;20043;-67
2022/03/29 12:21:24;;;;;;;0.00;0.00;;;19.60;35.70;;;;;;4143895;28;20384;-68
2022/03/29 12:23:48;;;;;;;0.00;0.00;;;19.80;35.20;;;;;;4136888;28;20049;-68
2022/03/29 12:26:12;;;;;;;0.00;0.00;;;19.80;34.70;;;;;;4150014;28;20551;-67
2022/03/29 12:28:39;;;;;;;0.00;0.00;;;19.80;33.80;;;;;;4136754;28;20054;-66
2022/03/29 12:31:08;;;;;;;0.00;0.00;;;19.80;33.70;;;;;;4136764;28;20097;-67
2022/03/29 12:33:37;;;;;;;0.00;0.00;;;20.00;33.90;;;;;;4137044;28;20041;-70
2022/03/29 12:36:07;;;;;;;0.00;0.00;;;20.10;33.90;;;;;;4150330;28;20046;-65
2022/03/29 12:38:51;;;;;;;0.00;0.00;;;20.00;33.50;;;;;;4123086;28;20104;-68
2022/03/29 12:41:34;;;;;;;0.00;0.00;;;19.80;34.40;;;;;;4136609;28;20073;-67
2022/03/29 12:43:59;;;;;;;0.00;0.00;;;19.90;35.00;;;;;;4136881;28;20053;-66
2022/03/29 12:46:23;;;;;;;0.00;0.00;;;20.20;35.00;;;;;;4149606;28;20065;-67
2022/03/29 12:48:48;;;;;;;0.00;0.00;;;20.40;34.20;;;;;;4136420;28;20105;-69
2022/03/29 12:51:15;;;;;;;0.00;0.00;;;20.60;34.20;;;;;;4136583;28;20133;-69